sensor_id;sensor_type;location;lat;lon;timestamp;P1;durP1;ratioP1;P2;durP2;ratioP2
19482;SDS011;9882;51.166;6.992;2022-10-16T04:02:52;3.00;;;2.35;;
19482;SDS011;9882;51.166;6.992;2022-10-16T04:05:21;3.38;;;2.42;;
19482;SDS011;9882;51.166;6.992;2022-10-16T04:07:49;3.35;;;2.50;;
19482;SDS011;9882;51.166;6.992;2022-10-16T04:10:18;3.17;;;2.58;;
19482;SDS011;9882;51.166;6.992;2022-10-16T04:12:47;4.13;;;3.05;;
19482;SDS011;9882;51.166;6.992;2022-10-16T04:15:16;5.75;;;2.65;;
19482;SDS011;9882;51.166;6.992;2022-10-16T04:21:51;2.60;;;2.15;;
19482;SDS011;9882;51.166;6.992;2022-10-16T04:27:53;2.75;;;2.22;;
19482;SDS011;9882;51.166;6.992;2022-10-16T04:29:28;3.75;;;2.17;;
19482;SDS011;9882;51.166;6.992;2022-10-16T04:33:55;4.50;;;2.38;;
19482;SDS011;9882;51.166;6.992;2022-10-16T04:43:51;4.18;;;2.53;;
19482;SDS011;9882;51.166;6.992;2022-10-16T04:46:53;3.75;;;2.50;;
19482;SDS011;9882;51.166;6.992;2022-10-16T04:50:05;5.32;;;2.80;;
19482;SDS011;9882;51.166;6.992;2022-10-16T04:57:03;7.45;;;3.08;;
19482;SDS011;9882;51.166;6.992;2022-10-16T05:00:54;6.68;;;2.72;;
19482;SDS011;9882;51.166;6.992;2022-10-16T05:04:55;5.35;;;2.75;;
19482;SDS011;9882;51.166;6.992;2022-10-16T05:12:29;6.32;;;2.70;;
19482;SDS011;9882;51.166;6.992;2022-10-16T05:15:53;3.42;;;2.50;;
19482;SDS011;9882;51.166;6.992;2022-10-16T05:19:34;7.35;;;2.75;;
19482;SDS011;9882;51.166;6.992;2022-10-16T05:23:34;5.35;;;2.90;;
19482;SDS011;9882;51.166;6.992;2022-10-16T05:26:46;4.07;;;2.60;;
19482;SDS011;9882;51.166;6.992;2022-10-16T05:30:44;4.05;;;2.70;;
19482;SDS011;9882;51.166;6.992;2022-10-16T05:37:56;5.28;;;2.60;;
19482;SDS011;9882;51.166;6.992;2022-10-16T05:42:00;7.35;;;3.22;;
19482;SDS011;9882;51.166;6.992;2022-10-16T05:48:35;5.35;;;2.60;;
19482;SDS011;9882;51.166;6.992;2022-10-16T05:52:43;4.57;;;3.00;;
19482;SDS011;9882;51.166;6.992;2022-10-16T05:57:21;4.80;;;2.70;;
19482;SDS011;9882;51.166;6.992;2022-10-16T06:04:48;3.00;;;2.50;;
19482;SDS011;9882;51.166;6.992;2022-10-16T06:20:23;6.80;;;2.70;;
19482;SDS011;9882;51.166;6.992;2022-10-16T06:47:17;5.22;;;2.75;;
19482;SDS011;9882;51.166;6.992;2022-10-16T08:03:57;4.38;;;2.90;;
19482;SDS011;9882;51.166;6.992;2022-10-16T09:16:50;3.40;;;2.13;;
19482;SDS011;9882;51.166;6.992;2022-10-16T09:21:49;3.72;;;1.95;;
19482;SDS011;9882;51.166;6.992;2022-10-16T10:13:39;1.77;;;1.67;;
19482;SDS011;9882;51.166;6.992;2022-10-16T10:17:10;3.47;;;1.73;;
19482;SDS011;9882;51.166;6.992;2022-10-16T10:19:44;11.77;;;1.83;;
19482;SDS011;9882;51.166;6.992;2022-10-16T10:22:17;3.60;;;1.50;;
19482;SDS011;9882;51.166;6.992;2022-10-16T10:25:00;4.97;;;1.80;;
19482;SDS011;9882;51.166;6.992;2022-10-16T10:30:42;4.30;;;1.83;;
19482;SDS011;9882;51.166;6.992;2022-10-16T10:33:18;2.90;;;1.50;;
19482;SDS011;9882;51.166;6.992;2022-10-16T10:35:56;3.72;;;1.65;;
19482;SDS011;9882;51.166;6.992;2022-10-16T10:38:36;4.43;;;1.73;;
19482;SDS011;9882;51.166;6.992;2022-10-16T10:41:20;4.45;;;1.63;;
19482;SDS011;9882;51.166;6.992;2022-10-16T10:44:03;1.77;;;1.33;;
19482;SDS011;9882;51.166;6.992;2022-10-16T10:46:41;7.47;;;1.52;;
19482;SDS011;9882;51.166;6.992;2022-10-16T10:49:20;8.32;;;1.80;;
19482;SDS011;9882;51.166;6.992;2022-10-16T10:52:05;3.90;;;1.63;;
19482;SDS011;9882;51.166;6.992;2022-10-16T10:54:46;4.20;;;1.25;;
19482;SDS011;9882;51.166;6.992;2022-10-16T10:57:25;2.63;;;1.48;;
19482;SDS011;9882;51.166;6.992;2022-10-16T11:00:07;2.92;;;1.38;;
19482;SDS011;9882;51.166;6.992;2022-10-16T11:02:46;2.35;;;1.30;;
19482;SDS011;9882;51.166;6.992;2022-10-16T11:05:31;5.05;;;1.58;;
19482;SDS011;9882;51.166;6.992;2022-10-16T11:08:13;1.63;;;1.52;;
19482;SDS011;9882;51.166;6.992;2022-10-16T11:10:49;5.13;;;1.65;;
19482;SDS011;9882;51.166;6.992;2022-10-16T11:13:26;5.95;;;1.70;;
19482;SDS011;9882;51.166;6.992;2022-10-16T11:16:01;2.55;;;1.40;;
19482;SDS011;9882;51.166;6.992;2022-10-16T11:18:39;6.68;;;1.77;;
19482;SDS011;9882;51.166;6.992;2022-10-16T11:21:15;2.13;;;1.77;;
19482;SDS011;9882;51.166;6.992;2022-10-16T11:23:51;5.78;;;1.50;;
19482;SDS011;9882;51.166;6.992;2022-10-16T11:26:26;6.72;;;1.90;;
19482;SDS011;9882;51.166;6.992;2022-10-16T11:28:56;5.75;;;2.00;;
19482;SDS011;9882;51.166;6.992;2022-10-16T11:31:28;4.28;;;1.90;;
19482;SDS011;9882;51.166;6.992;2022-10-16T11:34:05;4.93;;;1.80;;
19482;SDS011;9882;51.166;6.992;2022-10-16T11:36:43;5.28;;;1.60;;
19482;SDS011;9882;51.166;6.992;2022-10-16T11:39:19;2.97;;;1.83;;
19482;SDS011;9882;51.166;6.992;2022-10-16T11:41:50;4.03;;;2.00;;
19482;SDS011;9882;51.166;6.992;2022-10-16T11:47:22;2.90;;;1.88;;
19482;SDS011;9882;51.166;6.992;2022-10-16T11:50:09;6.70;;;2.05;;
19482;SDS011;9882;51.166;6.992;2022-10-16T11:52:48;4.35;;;1.98;;
19482;SDS011;9882;51.166;6.992;2022-10-16T11:55:24;13.95;;;2.17;;
19482;SDS011;9882;51.166;6.992;2022-10-16T11:57:59;4.00;;;2.15;;
19482;SDS011;9882;51.166;6.992;2022-10-16T12:00:33;4.20;;;2.42;;
19482;SDS011;9882;51.166;6.992;2022-10-16T12:03:10;2.13;;;1.73;;
19482;SDS011;9882;51.166;6.992;2022-10-16T12:06:05;3.10;;;1.60;;
19482;SDS011;9882;51.166;6.992;2022-10-16T12:08:41;5.28;;;1.98;;
19482;SDS011;9882;51.166;6.992;2022-10-16T12:11:22;5.20;;;2.08;;
19482;SDS011;9882;51.166;6.992;2022-10-16T12:14:18;3.33;;;1.73;;
19482;SDS011;9882;51.166;6.992;2022-10-16T12:16:50;3.50;;;2.22;;
19482;SDS011;9882;51.166;6.992;2022-10-16T12:19:21;2.28;;;1.50;;
19482;SDS011;9882;51.166;6.992;2022-10-16T12:21:51;5.80;;;1.73;;
19482;SDS011;9882;51.166;6.992;2022-10-16T12:24:27;2.67;;;1.63;;
19482;SDS011;9882;51.166;6.992;2022-10-16T12:27:02;4.18;;;1.83;;
19482;SDS011;9882;51.166;6.992;2022-10-16T12:29:34;3.72;;;1.77;;
19482;SDS011;9882;51.166;6.992;2022-10-16T12:32:06;4.22;;;1.70;;
19482;SDS011;9882;51.166;6.992;2022-10-16T12:35:17;4.18;;;1.67;;
19482;SDS011;9882;51.166;6.992;2022-10-16T12:37:48;6.32;;;2.10;;
19482;SDS011;9882;51.166;6.992;2022-10-16T12:40:23;4.95;;;2.03;;
19482;SDS011;9882;51.166;6.992;2022-10-16T12:42:57;5.03;;;1.73;;
19482;SDS011;9882;51.166;6.992;2022-10-16T12:45:27;2.22;;;1.67;;
19482;SDS011;9882;51.166;6.992;2022-10-16T12:47:58;6.32;;;2.22;;
19482;SDS011;9882;51.166;6.992;2022-10-16T12:50:30;4.55;;;1.95;;
19482;SDS011;9882;51.166;6.992;2022-10-16T12:53:02;2.63;;;1.67;;
19482;SDS011;9882;51.166;6.992;2022-10-16T12:55:34;4.40;;;1.67;;
19482;SDS011;9882;51.166;6.992;2022-10-16T12:58:24;6.93;;;1.92;;
19482;SDS011;9882;51.166;6.992;2022-10-16T13:01:07;3.50;;;1.77;;
19482;SDS011;9882;51.166;6.992;2022-10-16T13:03:48;4.45;;;2.00;;
19482;SDS011;9882;51.166;6.992;2022-10-16T13:06:33;2.72;;;1.50;;
19482;SDS011;9882;51.166;6.992;2022-10-16T13:15:19;2.67;;;1.60;;
19482;SDS011;9882;51.166;6.992;2022-10-16T13:18:05;2.00;;;1.52;;
19482;SDS011;9882;51.166;6.992;2022-10-16T13:20:48;2.08;;;1.58;;
19482;SDS011;9882;51.166;6.992;2022-10-16T13:23:27;5.05;;;1.85;;
19482;SDS011;9882;51.166;6.992;2022-10-16T13:26:08;9.55;;;1.98;;
19482;SDS011;9882;51.166;6.992;2022-10-16T13:28:46;9.13;;;1.77;;
19482;SDS011;9882;51.166;6.992;2022-10-16T13:31:17;6.15;;;1.77;;
19482;SDS011;9882;51.166;6.992;2022-10-16T13:33:49;2.15;;;1.20;;
19482;SDS011;9882;51.166;6.992;2022-10-16T13:36:22;4.25;;;1.70;;
19482;SDS011;9882;51.166;6.992;2022-10-16T13:38:59;1.85;;;1.20;;
19482;SDS011;9882;51.166;6.992;2022-10-16T13:41:34;2.13;;;1.40;;
19482;SDS011;9882;51.166;6.992;2022-10-16T13:44:03;8.32;;;1.35;;
19482;SDS011;9882;51.166;6.992;2022-10-16T13:46:34;2.03;;;1.27;;
19482;SDS011;9882;51.166;6.992;2022-10-16T13:49:03;4.10;;;1.52;;
19482;SDS011;9882;51.166;6.992;2022-10-16T13:51:32;3.17;;;1.50;;
19482;SDS011;9882;51.166;6.992;2022-10-16T13:54:01;2.63;;;1.35;;
19482;SDS011;9882;51.166;6.992;2022-10-16T13:56:30;1.88;;;1.35;;
19482;SDS011;9882;51.166;6.992;2022-10-16T13:59:01;1.23;;;1.10;;
19482;SDS011;9882;51.166;6.992;2022-10-16T14:01:31;4.10;;;1.42;;
19482;SDS011;9882;51.166;6.992;2022-10-16T14:04:08;4.13;;;1.58;;
19482;SDS011;9882;51.166;6.992;2022-10-16T14:06:40;4.95;;;1.40;;
19482;SDS011;9882;51.166;6.992;2022-10-16T14:09:13;3.22;;;1.48;;
19482;SDS011;9882;51.166;6.992;2022-10-16T14:11:50;3.00;;;1.35;;
19482;SDS011;9882;51.166;6.992;2022-10-16T14:14:20;1.00;;;0.90;;
19482;SDS011;9882;51.166;6.992;2022-10-16T14:16:51;1.75;;;1.13;;
19482;SDS011;9882;51.166;6.992;2022-10-16T14:19:21;4.45;;;1.17;;
19482;SDS011;9882;51.166;6.992;2022-10-16T14:21:51;3.30;;;1.40;;
19482;SDS011;9882;51.166;6.992;2022-10-16T14:24:25;3.22;;;1.42;;
19482;SDS011;9882;51.166;6.992;2022-10-16T14:26:55;1.50;;;1.40;;
19482;SDS011;9882;51.166;6.992;2022-10-16T14:29:25;3.40;;;1.10;;
19482;SDS011;9882;51.166;6.992;2022-10-16T14:31:57;1.88;;;1.50;;
19482;SDS011;9882;51.166;6.992;2022-10-16T14:34:28;2.78;;;1.17;;
19482;SDS011;9882;51.166;6.992;2022-10-16T14:36:59;1.95;;;1.55;;
19482;SDS011;9882;51.166;6.992;2022-10-16T14:39:38;2.80;;;1.30;;
19482;SDS011;9882;51.166;6.992;2022-10-16T14:42:11;4.82;;;1.65;;
19482;SDS011;9882;51.166;6.992;2022-10-16T14:44:43;1.73;;;1.40;;
19482;SDS011;9882;51.166;6.992;2022-10-16T14:47:15;1.48;;;1.38;;
19482;SDS011;9882;51.166;6.992;2022-10-16T14:49:48;5.93;;;1.30;;
19482;SDS011;9882;51.166;6.992;2022-10-16T14:52:17;2.85;;;1.20;;
19482;SDS011;9882;51.166;6.992;2022-10-16T14:54:47;1.40;;;1.30;;
19482;SDS011;9882;51.166;6.992;2022-10-16T14:57:27;3.58;;;1.70;;
19482;SDS011;9882;51.166;6.992;2022-10-16T14:59:59;5.95;;;1.88;;
19482;SDS011;9882;51.166;6.992;2022-10-16T15:02:34;4.30;;;1.60;;
19482;SDS011;9882;51.166;6.992;2022-10-16T15:05:28;1.65;;;1.23;;
19482;SDS011;9882;51.166;6.992;2022-10-16T15:08:16;1.52;;;1.42;;
19482;SDS011;9882;51.166;6.992;2022-10-16T15:10:58;26.00;;;9.82;;
19482;SDS011;9882;51.166;6.992;2022-10-16T15:13:37;32.45;;;14.18;;
19482;SDS011;9882;51.166;6.992;2022-10-16T15:16:10;20.85;;;9.65;;
19482;SDS011;9882;51.166;6.992;2022-10-16T15:22:05;23.42;;;10.15;;
19482;SDS011;9882;51.166;6.992;2022-10-16T15:24:47;7.93;;;3.70;;
19482;SDS011;9882;51.166;6.992;2022-10-16T15:27:28;13.15;;;5.93;;
19482;SDS011;9882;51.166;6.992;2022-10-16T15:30:02;7.25;;;2.72;;
19482;SDS011;9882;51.166;6.992;2022-10-16T15:36:03;3.88;;;1.95;;
19482;SDS011;9882;51.166;6.992;2022-10-16T15:38:39;7.85;;;2.58;;
19482;SDS011;9882;51.166;6.992;2022-10-16T15:41:30;5.75;;;2.10;;
19482;SDS011;9882;51.166;6.992;2022-10-16T15:44:06;3.10;;;1.83;;
19482;SDS011;9882;51.166;6.992;2022-10-16T15:46:41;4.70;;;2.28;;
19482;SDS011;9882;51.166;6.992;2022-10-16T15:50:13;5.30;;;2.00;;
19482;SDS011;9882;51.166;6.992;2022-10-16T15:53:00;6.18;;;2.33;;
19482;SDS011;9882;51.166;6.992;2022-10-16T15:55:53;10.45;;;2.20;;
19482;SDS011;9882;51.166;6.992;2022-10-16T15:58:57;6.53;;;1.95;;
19482;SDS011;9882;51.166;6.992;2022-10-16T16:01:42;6.80;;;1.67;;
19482;SDS011;9882;51.166;6.992;2022-10-16T16:04:15;3.65;;;1.92;;
19482;SDS011;9882;51.166;6.992;2022-10-16T16:07:05;2.88;;;2.03;;
19482;SDS011;9882;51.166;6.992;2022-10-16T16:09:38;5.15;;;2.30;;
19482;SDS011;9882;51.166;6.992;2022-10-16T16:12:08;2.92;;;1.80;;
19482;SDS011;9882;51.166;6.992;2022-10-16T16:14:40;4.75;;;1.88;;
19482;SDS011;9882;51.166;6.992;2022-10-16T16:17:12;3.13;;;1.88;;
19482;SDS011;9882;51.166;6.992;2022-10-16T16:19:41;3.13;;;1.92;;
19482;SDS011;9882;51.166;6.992;2022-10-16T16:22:10;2.00;;;1.80;;
19482;SDS011;9882;51.166;6.992;2022-10-16T16:24:39;5.03;;;1.75;;
19482;SDS011;9882;51.166;6.992;2022-10-16T16:27:08;3.10;;;1.80;;
19482;SDS011;9882;51.166;6.992;2022-10-16T16:29:37;3.88;;;2.13;;
19482;SDS011;9882;51.166;6.992;2022-10-16T16:32:06;4.05;;;2.17;;
19482;SDS011;9882;51.166;6.992;2022-10-16T16:34:34;5.85;;;2.35;;
19482;SDS011;9882;51.166;6.992;2022-10-16T16:37:03;4.82;;;2.15;;
19482;SDS011;9882;51.166;6.992;2022-10-16T16:39:31;3.97;;;1.98;;
19482;SDS011;9882;51.166;6.992;2022-10-16T16:42:00;3.75;;;1.92;;
19482;SDS011;9882;51.166;6.992;2022-10-16T16:44:31;6.50;;;2.00;;
19482;SDS011;9882;51.166;6.992;2022-10-16T16:46:59;2.40;;;1.80;;
19482;SDS011;9882;51.166;6.992;2022-10-16T16:49:28;3.55;;;2.10;;
19482;SDS011;9882;51.166;6.992;2022-10-16T16:51:56;5.25;;;2.10;;
19482;SDS011;9882;51.166;6.992;2022-10-16T16:54:25;12.40;;;2.67;;
19482;SDS011;9882;51.166;6.992;2022-10-16T16:56:53;6.18;;;1.98;;
19482;SDS011;9882;51.166;6.992;2022-10-16T16:59:22;6.10;;;2.47;;
19482;SDS011;9882;51.166;6.992;2022-10-16T17:01:52;3.75;;;1.80;;
19482;SDS011;9882;51.166;6.992;2022-10-16T17:04:22;27.65;;;2.65;;
19482;SDS011;9882;51.166;6.992;2022-10-16T17:06:52;8.18;;;2.00;;
19482;SDS011;9882;51.166;6.992;2022-10-16T17:09:20;5.72;;;2.28;;
19482;SDS011;9882;51.166;6.992;2022-10-16T17:11:49;21.70;;;2.72;;
19482;SDS011;9882;51.166;6.992;2022-10-16T17:14:18;2.78;;;1.92;;
19482;SDS011;9882;51.166;6.992;2022-10-16T17:16:47;4.88;;;2.30;;
19482;SDS011;9882;51.166;6.992;2022-10-16T17:19:17;7.35;;;2.47;;
19482;SDS011;9882;51.166;6.992;2022-10-16T17:21:47;6.40;;;2.20;;
19482;SDS011;9882;51.166;6.992;2022-10-16T17:24:17;5.95;;;2.30;;
19482;SDS011;9882;51.166;6.992;2022-10-16T17:26:46;3.42;;;2.03;;
19482;SDS011;9882;51.166;6.992;2022-10-16T17:29:15;4.88;;;1.85;;
19482;SDS011;9882;51.166;6.992;2022-10-16T17:31:45;9.98;;;2.55;;
19482;SDS011;9882;51.166;6.992;2022-10-16T17:34:17;4.72;;;2.05;;
19482;SDS011;9882;51.166;6.992;2022-10-16T17:36:45;4.30;;;1.85;;
19482;SDS011;9882;51.166;6.992;2022-10-16T17:39:14;7.57;;;2.22;;
19482;SDS011;9882;51.166;6.992;2022-10-16T17:41:45;7.32;;;2.08;;
19482;SDS011;9882;51.166;6.992;2022-10-16T17:44:14;7.90;;;2.10;;
19482;SDS011;9882;51.166;6.992;2022-10-16T17:46:46;8.52;;;2.78;;
19482;SDS011;9882;51.166;6.992;2022-10-16T17:49:21;8.18;;;2.08;;
19482;SDS011;9882;51.166;6.992;2022-10-16T17:51:51;8.88;;;2.15;;
19482;SDS011;9882;51.166;6.992;2022-10-16T17:54:21;4.07;;;2.38;;
19482;SDS011;9882;51.166;6.992;2022-10-16T17:56:50;3.67;;;2.10;;
19482;SDS011;9882;51.166;6.992;2022-10-16T17:59:18;9.18;;;2.30;;
19482;SDS011;9882;51.166;6.992;2022-10-16T18:01:48;8.38;;;2.00;;
19482;SDS011;9882;51.166;6.992;2022-10-16T18:04:17;4.40;;;2.53;;
19482;SDS011;9882;51.166;6.992;2022-10-16T18:06:47;7.43;;;2.40;;
19482;SDS011;9882;51.166;6.992;2022-10-16T18:09:17;6.28;;;2.05;;
19482;SDS011;9882;51.166;6.992;2022-10-16T18:11:46;10.18;;;2.30;;
19482;SDS011;9882;51.166;6.992;2022-10-16T18:14:18;7.82;;;2.30;;
19482;SDS011;9882;51.166;6.992;2022-10-16T18:16:47;10.02;;;2.28;;
19482;SDS011;9882;51.166;6.992;2022-10-16T18:19:20;4.97;;;1.90;;
19482;SDS011;9882;51.166;6.992;2022-10-16T18:21:51;6.32;;;1.90;;
19482;SDS011;9882;51.166;6.992;2022-10-16T18:24:21;5.38;;;2.40;;
19482;SDS011;9882;51.166;6.992;2022-10-16T18:26:51;4.90;;;2.30;;
19482;SDS011;9882;51.166;6.992;2022-10-16T18:29:23;4.32;;;2.25;;
19482;SDS011;9882;51.166;6.992;2022-10-16T18:31:52;5.35;;;2.28;;
19482;SDS011;9882;51.166;6.992;2022-10-16T18:34:22;4.00;;;2.25;;
19482;SDS011;9882;51.166;6.992;2022-10-16T18:36:54;2.72;;;1.90;;
19482;SDS011;9882;51.166;6.992;2022-10-16T18:39:23;4.93;;;2.08;;
19482;SDS011;9882;51.166;6.992;2022-10-16T18:41:51;5.57;;;2.00;;
19482;SDS011;9882;51.166;6.992;2022-10-16T18:44:25;3.20;;;2.00;;
19482;SDS011;9882;51.166;6.992;2022-10-16T18:46:54;7.05;;;2.20;;
19482;SDS011;9882;51.166;6.992;2022-10-16T18:49:24;3.67;;;1.88;;
19482;SDS011;9882;51.166;6.992;2022-10-16T18:51:55;3.80;;;2.10;;
19482;SDS011;9882;51.166;6.992;2022-10-16T18:54:24;3.80;;;2.20;;
19482;SDS011;9882;51.166;6.992;2022-10-16T18:56:52;3.83;;;2.20;;
19482;SDS011;9882;51.166;6.992;2022-10-16T18:59:21;2.05;;;1.85;;
19482;SDS011;9882;51.166;6.992;2022-10-16T19:01:52;12.10;;;2.90;;
19482;SDS011;9882;51.166;6.992;2022-10-16T19:04:21;4.95;;;2.40;;
19482;SDS011;9882;51.166;6.992;2022-10-16T19:06:50;5.72;;;2.15;;
19482;SDS011;9882;51.166;6.992;2022-10-16T19:09:22;3.08;;;2.00;;
19482;SDS011;9882;51.166;6.992;2022-10-16T19:11:51;3.30;;;2.30;;
19482;SDS011;9882;51.166;6.992;2022-10-16T19:14:19;3.55;;;2.22;;
19482;SDS011;9882;51.166;6.992;2022-10-16T19:16:48;4.68;;;2.17;;
19482;SDS011;9882;51.166;6.992;2022-10-16T19:19:17;4.53;;;2.17;;
19482;SDS011;9882;51.166;6.992;2022-10-16T19:21:45;3.30;;;2.10;;
19482;SDS011;9882;51.166;6.992;2022-10-16T19:24:17;3.78;;;2.33;;
19482;SDS011;9882;51.166;6.992;2022-10-16T19:26:47;4.00;;;2.25;;
19482;SDS011;9882;51.166;6.992;2022-10-16T19:29:15;6.38;;;1.98;;
19482;SDS011;9882;51.166;6.992;2022-10-16T19:31:44;5.50;;;2.28;;
19482;SDS011;9882;51.166;6.992;2022-10-16T19:34:12;5.38;;;2.20;;
19482;SDS011;9882;51.166;6.992;2022-10-16T19:36:41;4.50;;;2.40;;
19482;SDS011;9882;51.166;6.992;2022-10-16T19:39:10;8.65;;;2.40;;
19482;SDS011;9882;51.166;6.992;2022-10-16T19:41:40;3.97;;;2.30;;
19482;SDS011;9882;51.166;6.992;2022-10-16T19:44:11;4.45;;;2.40;;
19482;SDS011;9882;51.166;6.992;2022-10-16T19:46:42;2.65;;;2.05;;
19482;SDS011;9882;51.166;6.992;2022-10-16T19:49:12;2.88;;;2.03;;
19482;SDS011;9882;51.166;6.992;2022-10-16T19:51:45;2.80;;;1.70;;
19482;SDS011;9882;51.166;6.992;2022-10-16T19:54:15;5.80;;;2.13;;
19482;SDS011;9882;51.166;6.992;2022-10-16T19:56:43;5.75;;;2.78;;
19482;SDS011;9882;51.166;6.992;2022-10-16T19:59:14;2.13;;;1.92;;
19482;SDS011;9882;51.166;6.992;2022-10-16T20:01:45;7.75;;;2.13;;
19482;SDS011;9882;51.166;6.992;2022-10-16T20:04:14;2.42;;;2.10;;
19482;SDS011;9882;51.166;6.992;2022-10-16T20:06:42;3.33;;;1.73;;
19482;SDS011;9882;51.166;6.992;2022-10-16T20:09:12;7.68;;;2.67;;
19482;SDS011;9882;51.166;6.992;2022-10-16T20:11:40;4.88;;;2.60;;
19482;SDS011;9882;51.166;6.992;2022-10-16T20:14:09;7.53;;;2.47;;
19482;SDS011;9882;51.166;6.992;2022-10-16T20:16:39;4.47;;;2.45;;
19482;SDS011;9882;51.166;6.992;2022-10-16T20:19:08;5.22;;;2.47;;
19482;SDS011;9882;51.166;6.992;2022-10-16T20:21:37;4.22;;;2.08;;
19482;SDS011;9882;51.166;6.992;2022-10-16T20:24:06;7.80;;;2.03;;
19482;SDS011;9882;51.166;6.992;2022-10-16T20:26:35;4.32;;;1.95;;
19482;SDS011;9882;51.166;6.992;2022-10-16T20:29:04;2.90;;;1.70;;
19482;SDS011;9882;51.166;6.992;2022-10-16T20:31:33;4.32;;;2.10;;
19482;SDS011;9882;51.166;6.992;2022-10-16T20:34:04;6.10;;;2.00;;
19482;SDS011;9882;51.166;6.992;2022-10-16T20:36:34;4.68;;;2.00;;
19482;SDS011;9882;51.166;6.992;2022-10-16T20:39:04;3.13;;;2.10;;
19482;SDS011;9882;51.166;6.992;2022-10-16T20:41:34;3.42;;;2.00;;
19482;SDS011;9882;51.166;6.992;2022-10-16T20:44:03;3.40;;;2.10;;
19482;SDS011;9882;51.166;6.992;2022-10-16T20:46:32;4.78;;;2.28;;
19482;SDS011;9882;51.166;6.992;2022-10-16T20:49:00;2.85;;;2.33;;
19482;SDS011;9882;51.166;6.992;2022-10-16T20:51:31;6.50;;;2.83;;
19482;SDS011;9882;51.166;6.992;2022-10-16T20:54:00;6.00;;;2.67;;
19482;SDS011;9882;51.166;6.992;2022-10-16T20:56:30;3.30;;;2.40;;
19482;SDS011;9882;51.166;6.992;2022-10-16T20:59:00;3.85;;;2.40;;
19482;SDS011;9882;51.166;6.992;2022-10-16T21:01:29;14.25;;;3.10;;
19482;SDS011;9882;51.166;6.992;2022-10-16T21:03:58;7.07;;;2.58;;
19482;SDS011;9882;51.166;6.992;2022-10-16T21:06:30;6.97;;;2.80;;
19482;SDS011;9882;51.166;6.992;2022-10-16T21:08:59;5.20;;;2.75;;
19482;SDS011;9882;51.166;6.992;2022-10-16T21:11:30;8.50;;;2.90;;
19482;SDS011;9882;51.166;6.992;2022-10-16T21:14:00;5.80;;;2.55;;
19482;SDS011;9882;51.166;6.992;2022-10-16T21:16:31;6.80;;;3.20;;
19482;SDS011;9882;51.166;6.992;2022-10-16T21:19:00;6.68;;;3.13;;
19482;SDS011;9882;51.166;6.992;2022-10-16T21:21:30;5.68;;;3.05;;
19482;SDS011;9882;51.166;6.992;2022-10-16T21:24:01;3.63;;;2.63;;
19482;SDS011;9882;51.166;6.992;2022-10-16T21:26:30;10.07;;;2.65;;
19482;SDS011;9882;51.166;6.992;2022-10-16T21:28:59;4.15;;;2.53;;
19482;SDS011;9882;51.166;6.992;2022-10-16T21:31:29;3.08;;;2.47;;
19482;SDS011;9882;51.166;6.992;2022-10-16T21:33:58;6.65;;;3.08;;
19482;SDS011;9882;51.166;6.992;2022-10-16T21:36:27;6.38;;;3.30;;
19482;SDS011;9882;51.166;6.992;2022-10-16T21:38:59;9.07;;;2.72;;
19482;SDS011;9882;51.166;6.992;2022-10-16T21:41:28;5.47;;;3.15;;
19482;SDS011;9882;51.166;6.992;2022-10-16T21:43:57;6.03;;;2.97;;
19482;SDS011;9882;51.166;6.992;2022-10-16T21:46:27;10.63;;;3.70;;
19482;SDS011;9882;51.166;6.992;2022-10-16T21:48:58;4.25;;;2.40;;
19482;SDS011;9882;51.166;6.992;2022-10-16T21:51:30;5.20;;;3.30;;
19482;SDS011;9882;51.166;6.992;2022-10-16T21:54:00;9.45;;;3.70;;
19482;SDS011;9882;51.166;6.992;2022-10-16T21:56:29;7.30;;;2.90;;
19482;SDS011;9882;51.166;6.992;2022-10-16T21:58:58;9.23;;;3.72;;
19482;SDS011;9882;51.166;6.992;2022-10-16T22:01:27;5.45;;;3.05;;
19482;SDS011;9882;51.166;6.992;2022-10-16T22:03:56;5.55;;;3.00;;
19482;SDS011;9882;51.166;6.992;2022-10-16T22:06:25;6.97;;;3.08;;
19482;SDS011;9882;51.166;6.992;2022-10-16T22:08:57;6.75;;;3.20;;
19482;SDS011;9882;51.166;6.992;2022-10-16T22:11:27;5.10;;;3.05;;
19482;SDS011;9882;51.166;6.992;2022-10-16T22:14:02;8.15;;;3.15;;
19482;SDS011;9882;51.166;6.992;2022-10-16T22:16:31;7.93;;;3.90;;
19482;SDS011;9882;51.166;6.992;2022-10-16T22:19:00;4.97;;;2.97;;
19482;SDS011;9882;51.166;6.992;2022-10-16T22:21:33;6.57;;;3.15;;
19482;SDS011;9882;51.166;6.992;2022-10-16T22:24:04;7.53;;;3.75;;
19482;SDS011;9882;51.166;6.992;2022-10-16T22:26:34;7.78;;;4.03;;
19482;SDS011;9882;51.166;6.992;2022-10-16T22:29:03;12.00;;;4.15;;
19482;SDS011;9882;51.166;6.992;2022-10-16T22:31:32;6.72;;;3.50;;
19482;SDS011;9882;51.166;6.992;2022-10-16T22:34:01;5.72;;;3.60;;
19482;SDS011;9882;51.166;6.992;2022-10-16T22:36:31;12.05;;;4.63;;
19482;SDS011;9882;51.166;6.992;2022-10-16T22:39:00;7.70;;;3.50;;
19482;SDS011;9882;51.166;6.992;2022-10-16T22:41:30;6.32;;;3.75;;
19482;SDS011;9882;51.166;6.992;2022-10-16T22:43:59;19.10;;;5.18;;
19482;SDS011;9882;51.166;6.992;2022-10-16T22:46:28;12.57;;;3.83;;
19482;SDS011;9882;51.166;6.992;2022-10-16T22:48:57;9.80;;;4.57;;
19482;SDS011;9882;51.166;6.992;2022-10-16T22:51:26;6.22;;;3.55;;
19482;SDS011;9882;51.166;6.992;2022-10-16T22:53:55;11.48;;;4.28;;
19482;SDS011;9882;51.166;6.992;2022-10-16T22:56:24;8.43;;;3.58;;
19482;SDS011;9882;51.166;6.992;2022-10-16T22:58:55;7.45;;;3.58;;
